Patuxent River Naval Air Station/Trapnell Field Aiport
KNHK : now visible

Airfield :











YOU CAN JOIN US ON...

 
LOGIN :

Register | Disclaimer

   EN    FR    IT 

 









Legend :    VFR   Marginal VFR   IFR   Intensive IFR   Very Intensive IFR
Visi :
Ceiling :
>= 8 km
>= 3000ft
5 to 8 km
1000 to 3000 ft
1500m to 5 km
500 to 1000 ft
800 to 1500m
200 to 500 ft
< 800m
< 200 ft
Symbols :   Thunderstorms  Fog  Heavy snow  Heavy precipitations  Wind > 20 kt






- Airport Elevation : 39 ft


KNHK - Patuxent River Naval Air Station/Trapnell Field Aiport

CURRENT METAR :
  • 061352Z 17007KT 10SM FEW140 BKN250 07/02 A3018 RMK AO2 SLP219 T00720017 $

EXPIRED METARs :
  • 061252Z 17004KT 10SM FEW140 03/00 A3019 RMK AO2 SLP222 T00330000 $
  • 061152Z COR 18003KT 10SM FEW140 M01/M02 A3018 RMK AO2 SLP221 T10061022 10039 21006 55000 $

TAF TAF KNHK
Valid from the 06 at 07:00 until the 07 at 07:00 UTC


0607/0707 VRB05KT 9999 BKN250 QNH3016INS
BECMG 0610/0612 20010KT 9999 SCT120 BKN250 QNH3015INS
FM061800 20010G18KT 9999 SCT030 BKN120 OVC250 QNH3010INS
BECMG 0702/0704 33015G25KT 9999 FEW030 SCT120 SCT250 QNH3018INS AUTOMATED SENSOR METWATCH 0607 TIL 0609 T02/0609Z T11/0619Z FN00216



MET'MAP, your aeronautical weather chart ! - Copyright ORBIFLY December 2007 - Disclaimer

ORBIFLY MET'MAP TEAM :

Programming & Development : Alexandra Zaïnal
Concept & original design : Baudouin d'Aumeries
Assistance for programming : Marc-Olivier Méhu
Technical & hardware support : Manuel Goepfert

Contact : metmap@orbifly.com




SOURCES & CREDITS :

   NOAA       Earth
Advisory